^^
Datos históricos de la estación: Murcia-Puente Tocinos
Diario Informe para Junio 24, 2021 Unidades:  Ingés    Métrico   Ambas
Diario Semanal Mensual Anual
  Máxima: Mínima: Promedio:
Temperatura: 72 °F 58.3 °F 64.4 °F
Punto de rocio: 47.1 °F 37.6 °F 43.2 °F
Humedad: 64% 28.6% 47%
Velocidad viento: 15.2mph 0mph 6.3mph
Racha viento: 28mph - -
Viento- - SSO
Presión: 29.9 in 29.7 in -
Precipitación: 0 in    
 
 
Tabla de datos para Junio 24, 2021
Hora Temperatura Punto de rocio Presión Viento Velocidad viento Racha viento Humedad Intensidad lluvia(por hora) Nubes
00:04 64.4 °F 45.9 °F 29.8 in SSO 14 mph 22.3 mph 51% 0 in
00:09 64.6 °F 46 °F 29.8 in SSO 13.7 mph 27.3 mph 51% 0 in
00:14 64.6 °F 46 °F 29.8 in SSO 13.7 mph 28 mph 51% 0 in
00:19 64 °F 45.9 °F 29.8 in SSO 12.8 mph 18.4 mph 51.4% 0 in
00:24 64 °F 46 °F 29.8 in SSO 12.5 mph 18.4 mph 52% 0 in
00:29 63.9 °F 46 °F 29.8 in SSO 11.1 mph 26.5 mph 52% 0 in
00:34 64 °F 46 °F 29.8 in SSO 10.7 mph 26 mph 52% 0 in
00:39 64.2 °F 46.2 °F 29.8 in SSO 12.4 mph 25 mph 52% 0 in
00:44 64 °F 46 °F 29.8 in SSO 13 mph 23 mph 52% 0 in
00:49 64 °F 46 °F 29.8 in SSO 11.5 mph 20 mph 52% 0 in
00:54 64 °F 46 °F 29.8 in Sur 11.2 mph 21.9 mph 52% 0 in
00:59 64.2 °F 46.2 °F 29.8 in SSO 10.4 mph 27.3 mph 52% 0 in
01:04 64.2 °F 46.2 °F 29.8 in SSO 10.2 mph 28 mph 52% 0 in
01:09 64.4 °F 46.4 °F 29.8 in SSO 12.5 mph 26.5 mph 52% 0 in
01:14 64.2 °F 46.2 °F 29.8 in Sur 13 mph 27.5 mph 52% 0 in
01:19 64.2 °F 46.2 °F 29.8 in SSO 14.8 mph 28 mph 52% 0 in
01:24 64.2 °F 46.2 °F 29.8 in Sur 15.2 mph 28 mph 52% 0 in
01:29 64 °F 46.2 °F 29.7 in Sur 13.9 mph 22.3 mph 52% 0 in
01:34 64.2 °F 46.2 °F 29.7 in SSO 13.7 mph 22 mph 52% 0 in
01:39 64 °F 46.2 °F 29.7 in Sur 12.1 mph 21.9 mph 52% 0 in
01:44 64.2 °F 46.2 °F 29.7 in Sur 11.8 mph 22 mph 52% 0 in
01:49 64.4 °F 46.4 °F 29.7 in SSO 11.8 mph 23 mph 52% 0 in
01:54 64.6 °F 46.6 °F 29.7 in SSO 11.8 mph 23 mph 52% 0 in
01:59 64.8 °F 46.8 °F 29.7 in Sur 12.7 mph 23 mph 52% 0 in
02:04 64.8 °F 46.6 °F 29.7 in Sur 13 mph 21.9 mph 51.8% 0 in
02:09 64.8 °F 46.8 °F 29.7 in SSO 11.7 mph 22 mph 52% 0 in
02:14 64.8 °F 46.8 °F 29.7 in SSO 11.4 mph 18.4 mph 52% 0 in
02:19 64.6 °F 46.6 °F 29.7 in SSO 11.2 mph 21.3 mph 52% 0 in
02:24 64.8 °F 46.6 °F 29.7 in SSO 11.2 mph 25.6 mph 52% 0 in
02:29 64.8 °F 46.8 °F 29.7 in SSO 12.7 mph 26 mph 52% 0 in
02:34 64.9 °F 46.9 °F 29.7 in SSO 13 mph 22 mph 52% 0 in
02:39 64.8 °F 46.8 °F 29.7 in SSO 14.2 mph 22 mph 52% 0 in
02:44 64.8 °F 46.8 °F 29.7 in Sur 14.5 mph 21.3 mph 52% 0 in
02:49 64.8 °F 46.6 °F 29.7 in Sur 12.3 mph 21 mph 52% 0 in
02:54 64.8 °F 46.8 °F 29.7 in Sur 11.8 mph 22.3 mph 52% 0 in
02:59 64.8 °F 46.8 °F 29.7 in Sur 11.3 mph 22 mph 52% 0 in
03:04 64.9 °F 46.8 °F 29.7 in SSO 11.2 mph 21 mph 52% 0 in
03:09 64.9 °F 46.9 °F 29.7 in SSO 12.1 mph 21.5 mph 52% 0 in
03:14 64.9 °F 46.9 °F 29.7 in SSO 12.3 mph 22 mph 52% 0 in
03:19 64.9 °F 46.8 °F 29.7 in SSO 11.4 mph 18.4 mph 52% 0 in
03:24 64.9 °F 46.9 °F 29.7 in SSO 11.2 mph 19.6 mph 52% 0 in
03:29 64.9 °F 46.8 °F 29.7 in SSO 10.3 mph 20 mph 51.8% 0 in
03:34 64.9 °F 46.9 °F 29.7 in SSO 10 mph 17 mph 52% 0 in
03:39 64.9 °F 46.9 °F 29.7 in SSO 8.1 mph 13 mph 52% 0 in
03:44 64.9 °F 46.9 °F 29.7 in SSO 7.6 mph 17.3 mph 52% 0 in
03:49 65.1 °F 46.8 °F 29.7 in SSO 8 mph 17 mph 51.4% 0 in
03:54 65.1 °F 46.9 °F 29.7 in SO 8.1 mph 15 mph 51.7% 0 in
03:59 64.9 °F 46.9 °F 29.7 in OSO 7.5 mph 11.2 mph 52% 0 in
04:04 64.6 °F 46.6 °F 29.7 in ONO 7.4 mph 11 mph 52% 0 in
04:09 63.9 °F 46.4 °F 29.7 in OSO 3.9 mph 10.2 mph 53.2% 0 in
04:14 63.3 °F 46.9 °F 29.7 in SSO 3.1 mph 13 mph 54.8% 0 in
04:19 64 °F 47.1 °F 29.7 in SSO 4.9 mph 13 mph 54.1% 0 in
04:24 64.6 °F 47.1 °F 29.7 in SSO 5.4 mph 13.8 mph 53% 0 in
04:29 64.9 °F 46.9 °F 29.7 in SSO 7.8 mph 14 mph 52.2% 0 in
04:34 65.1 °F 47.1 °F 29.7 in SO 8.5 mph 14 mph 52% 0 in
04:39 65.1 °F 47.1 °F 29.7 in SO 7.2 mph 13.8 mph 52% 0 in
04:44 65.1 °F 47.1 °F 29.7 in Oeste 6.9 mph 14 mph 52% 0 in
04:49 64.8 °F 46.8 °F 29.7 in NO 5.7 mph 10 mph 52.2% 0 in
04:54 63.9 °F 46.6 °F 29.7 in Oeste 5.4 mph 10 mph 53.4% 0 in
04:59 63.1 °F 46.8 °F 29.7 in ONO 4.3 mph 10.4 mph 55% 0 in
05:04 63 °F 46.6 °F 29.7 in NO 4 mph 10 mph 55% 0 in
05:09 62.2 °F 46.4 °F 29.7 in Oeste 4.6 mph 7 mph 56% 0 in
05:14 61.7 °F 46.4 °F 29.7 in NO 4.7 mph 7 mph 57.1% 0 in
05:19 61.2 °F 46.2 °F 29.7 in NO 4.2 mph 7 mph 58% 0 in
05:24 60.4 °F 46 °F 29.7 in NNO 4 mph 5 mph 58.9% 0 in
05:29 59.9 °F 46 °F 29.7 in North 3.2 mph 5 mph 60% 0 in
05:34 59.4 °F 46 °F 29.7 in NNE 2.9 mph 5 mph 61.1% 0 in
05:39 58.8 °F 45.9 °F 29.7 in Este 2.2 mph 5 mph 62% 0 in
05:44 58.5 °F 45.9 °F 29.7 in ENE 2 mph 5 mph 62.9% 0 in
05:49 58.3 °F 46.2 °F 29.7 in ENE 2 mph 5 mph 63.9% 0 in
05:54 58.5 °F 46.2 °F 29.7 in NNE 2 mph 2.9 mph 64% 0 in
05:59 58.6 °F 46.4 °F 29.7 in Sur 1.5 mph 4 mph 63.7% 0 in
06:04 58.8 °F 46.2 °F 29.7 in SSE 1.4 mph 4 mph 63% 0 in
06:06 58.8 °F 46.2 °F 29.7 in Este 1.4 mph 4 mph 63% 0 in
15:09 71.1 °F 37.9 °F 29.8 in NO 4.7 mph 11.4 mph 30% 0 in
15:14 70.9 °F 38.1 °F 29.8 in NO 4.7 mph 11 mph 30.4% 0 in
15:19 71.1 °F 37.9 °F 29.8 in ONO 5.6 mph 10.4 mph 30% 0 in
15:24 70.9 °F 37.9 °F 29.9 in ONO 5.9 mph 10.4 mph 30% 0 in
15:29 70.9 °F 37.9 °F 29.9 in ONO 6.2 mph 11.5 mph 30% 0 in
15:34 70.9 °F 37.9 °F 29.9 in ONO 6.2 mph 12 mph 30% 0 in
15:39 70.9 °F 37.9 °F 29.9 in ONO 6 mph 10.7 mph 30% 0 in
15:44 71.1 °F 37.9 °F 29.9 in NO 5.9 mph 11 mph 30% 0 in
15:49 71.1 °F 37.9 °F 29.9 in NNO 5.3 mph 10.7 mph 30% 0 in
15:54 70.9 °F 37.9 °F 29.9 in NNO 5.2 mph 11 mph 30% 0 in
15:59 70.9 °F 37.9 °F 29.9 in North 4.8 mph 9 mph 30% 0 in
16:04 71.1 °F 37.9 °F 29.9 in NNE 4.7 mph 5 mph 30% 0 in
16:09 71.2 °F 38.1 °F 29.9 in NE 2.7 mph 5 mph 30% 0 in
16:14 71.6 °F 38.3 °F 29.9 in SSE 2 mph 3 mph 29.7% 0 in
16:19 72 °F 37.9 °F 29.9 in NNE 1.6 mph 4.6 mph 29% 0 in
16:24 72 °F 37.6 °F 29.9 in ONO 1.4 mph 5 mph 28.6% 0 in
16:29 71.8 °F 37.8 °F 29.9 in North 1.9 mph 5 mph 29% 0 in
16:34 71.8 °F 37.8 °F 29.9 in NO 2 mph 8.5 mph 29% 0 in
16:39 71.4 °F 38.1 °F 29.9 in NO 3.2 mph 9 mph 29.7% 0 in
16:44 71.2 °F 38.1 °F 29.9 in NO 3.6 mph 9.7 mph 29.9% 0 in
16:49 71.1 °F 37.9 °F 29.9 in NNO 4.1 mph 10 mph 30% 0 in
16:54 70.9 °F 37.9 °F 29.9 in NNE 4.3 mph 8 mph 30% 0 in
16:59 70.7 °F 41.2 °F 29.9 in ESE 3.2 mph 8.1 mph 34.4% 0 in
17:04 70.3 °F 42.3 °F 29.9 in SE 2.9 mph 8.1 mph 36.2% 0 in
17:09 70 °F 42.4 °F 29.9 in SE 4.6 mph 8 mph 36.9% 0 in
17:14 70 °F 41.5 °F 29.9 in ESE 5.2 mph 5.8 mph 35.8% 0 in
17:19 70 °F 41 °F 29.9 in ESE 4.3 mph 6 mph 35.1% 0 in
17:24 70 °F 40.8 °F 29.9 in SE 4 mph 6.2 mph 34.6% 0 in
17:29 69.8 °F 42.6 °F 29.9 in ESE 3.3 mph 6.9 mph 37.4% 0 in
17:34 69.1 °F 43.7 °F 29.9 in ESE 3.1 mph 8.7 mph 39.9% 0 in
17:39 68.5 °F 44.1 °F 29.9 in ESE 4.2 mph 9.2 mph 41.4% 0 in
17:44 67.6 °F 44.2 °F 29.9 in ESE 4.7 mph 8.5 mph 42.7% 0 in
17:49 67.3 °F 44.1 °F 29.9 in ESE 5.1 mph 9 mph 43.3% 0 in
17:54 66.7 °F 44.2 °F 29.9 in Este 5.2 mph 8 mph 44% 0 in
17:59 66.6 °F 44.1 °F 29.9 in Este 3.5 mph 6 mph 44% 0 in
18:04 66.6 °F 44.1 °F 29.9 in NE 2.9 mph 5 mph 44.2% 0 in
18:09 66 °F 44.2 °F 29.9 in ESE 2.9 mph 7.4 mph 45.1% 0 in
18:14 65.5 °F 44.2 °F 29.9 in ESE 2.9 mph 8.5 mph 46% 0 in
18:19 64.9 °F 44.2 °F 29.9 in ESE 4.2 mph 9 mph 47% 0 in
18:24 64.6 °F 44.2 °F 29.9 in Este 4.7 mph 8.1 mph 47.7% 0 in
18:29 64 °F 43.9 °F 29.9 in ESE 5.2 mph 8.5 mph 48% 0 in
18:34 63.9 °F 43.9 °F 29.9 in ESE 5.4 mph 9.2 mph 48.2% 0 in
18:39 63.7 °F 44.2 °F 29.9 in SE 4.8 mph 9.2 mph 49% 0 in
18:44 63.3 °F 43.9 °F 29.9 in SE 4.7 mph 9.2 mph 49% 0 in
18:49 63.3 °F 43.5 °F 29.9 in Este 4.7 mph 9.2 mph 48.5% 0 in
18:54 63.3 °F 43.3 °F 29.9 in ESE 4.7 mph 8 mph 48% 0 in
18:59 63.5 °F 43.2 °F 29.9 in ESE 3.9 mph 7 mph 47.3% 0 in
19:04 63.5 °F 43.3 °F 29.9 in NO 3.6 mph 6 mph 47.8% 0 in
19:09 63.3 °F 43 °F 29.9 in NNO 2.7 mph 6.2 mph 47.6% 0 in
19:14 63.1 °F 43.5 °F 29.9 in NE 2.4 mph 8.1 mph 48.6% 0 in
19:19 63 °F 43.3 °F 29.9 in NE 3.4 mph 8 mph 49% 0 in
19:24 62.8 °F 43 °F 29.9 in NNE 3.6 mph 8.1 mph 48.5% 0 in
19:29 62.8 °F 42.1 °F 29.9 in NNO 3.9 mph 11.8 mph 46.7% 0 in
19:34 63.1 °F 41 °F 29.9 in NNO 4 mph 12 mph 44.4% 0 in
19:39 63.1 °F 41.4 °F 29.9 in NO 5 mph 12 mph 45% 0 in
19:44 63.1 °F 41.4 °F 29.9 in ONO 5.2 mph 8 mph 44.8% 0 in
19:49 63 °F 40.5 °F 29.9 in Oeste 4.3 mph 10.7 mph 43.6% 0 in
19:54 62.8 °F 39.7 °F 29.9 in ONO 4 mph 11.8 mph 42.8% 0 in
19:59 62.8 °F 39.9 °F 29.9 in Oeste 5.5 mph 12 mph 43% 0 in
20:04 62.6 °F 39.9 °F 29.9 in OSO 5.9 mph 9 mph 43.4% 0 in
20:09 62.2 °F 40.8 °F 29.9 in OSO 5 mph 9 mph 45% 0 in
20:14 62.2 °F 41.5 °F 29.9 in SO 4.7 mph 8 mph 46.5% 0 in
20:19 62.1 °F 42.6 °F 29.9 in SSO 4.4 mph 6.9 mph 48.9% 0 in
20:24 62.1 °F 43 °F 29.9 in SO 4.3 mph 10.7 mph 49.6% 0 in
20:29 62.2 °F 42.4 °F 29.9 in SO 5 mph 11 mph 48.2% 0 in
20:34 62.6 °F 42.8 °F 29.9 in SSO 5.2 mph 10.4 mph 48.3% 0 in
20:39 62.8 °F 41.9 °F 29.9 in SO 5.2 mph 10 mph 46.5% 0 in
20:44 63 °F 41.4 °F 29.9 in SSO 5.2 mph 7 mph 45% 0 in
20:49 63 °F 40.8 °F 29.9 in SO 4.5 mph 10 mph 44.1% 0 in
20:54 63 °F 40.6 °F 29.9 in OSO 4.3 mph 10.4 mph 43.8% 0 in
20:59 63 °F 40.5 °F 29.9 in SO 4.1 mph 8 mph 43.7% 0 in
21:04 62.6 °F 40.5 °F 29.9 in OSO 4 mph 8.5 mph 44% 0 in
21:09 62.2 °F 40.5 °F 29.9 in OSO 4.5 mph 9.2 mph 44.7% 0 in
21:14 62.1 °F 40.5 °F 29.9 in OSO 4.7 mph 10.4 mph 45% 0 in
21:19 61.7 °F 40.6 °F 29.9 in OSO 5.2 mph 10 mph 45.9% 0 in
21:24 61.3 °F 40.5 °F 29.9 in OSO 5.4 mph 9.2 mph 46.1% 0 in
21:29 61.3 °F 40.8 °F 29.9 in Oeste 5.8 mph 9.2 mph 46.9% 0 in
21:34 61.2 °F 40.3 °F 29.9 in Oeste 5.9 mph 11.5 mph 46.1% 0 in
21:39 61.3 °F 40.5 °F 29.9 in Oeste 6.2 mph 12.3 mph 46% 0 in
21:44 61.5 °F 40.5 °F 29.9 in Oeste 6.2 mph 13 mph 46% 0 in
21:49 61.5 °F 40.5 °F 29.9 in Oeste 6 mph 13 mph 46% 0 in
21:54 61.5 °F 40.5 °F 29.9 in Oeste 5.9 mph 9.7 mph 46% 0 in
21:59 61.5 °F 40.5 °F 29.9 in Oeste 5.4 mph 11.5 mph 46% 0 in
22:04 61.5 °F 40.5 °F 29.9 in Oeste 5.2 mph 12.7 mph 46% 0 in
22:09 61.5 °F 40.5 °F 29.9 in Oeste 7.6 mph 16.1 mph 46% 0 in
22:14 61.5 °F 40.3 °F 29.9 in Oeste 8.5 mph 18.5 mph 45.5% 0 in
22:19 61.9 °F 40.3 °F 29.9 in Oeste 9.8 mph 19 mph 45% 0 in
22:24 61.9 °F 40.3 °F 29.9 in Oeste 10.2 mph 16 mph 45% 0 in
22:29 61.9 °F 40.3 °F 29.9 in OSO 8 mph 13 mph 45% 0 in
22:34 61.9 °F 40.3 °F 29.9 in OSO 7.4 mph 12 mph 45% 0 in
22:39 61.7 °F 40.1 °F 29.9 in Oeste 4.2 mph 6.9 mph 45% 0 in
22:44 61.7 °F 40.1 °F 29.9 in Oeste 3.1 mph 7 mph 45% 0 in
22:49 61.7 °F 40.1 °F 29.9 in Oeste 3.5 mph 7 mph 45% 0 in
22:54 61.7 °F 40.1 °F 29.9 in Oeste 3.6 mph 6.2 mph 45% 0 in
22:59 61.9 °F 39.7 °F 29.9 in Oeste 3.2 mph 6 mph 44.1% 0 in
23:04 61.9 °F 39.7 °F 29.9 in Oeste 3.1 mph 5 mph 44.1% 0 in
23:09 61.9 °F 39.9 °F 29.9 in NO 2.5 mph 5 mph 44.5% 0 in
23:14 61.9 °F 39.9 °F 29.9 in NO 2.4 mph 3 mph 44.6% 0 in
23:19 61.5 °F 40.1 °F 29.9 in NO 0.6 mph 2.9 mph 45% 0 in
23:24 61.5 °F 40.1 °F 29.9 in Calm   4.6 mph 45.3% 0 in
23:29 61.3 °F 40.5 °F 29.9 in SSO 1.5 mph 5.4 mph 46% 0 in
23:34 61.2 °F 40.1 °F 29.9 in SO 2 mph 6 mph 46.1% 0 in
23:39 61 °F 40.5 °F 29.9 in SSO 3.2 mph 6 mph 47% 0 in
23:44 60.6 °F 40.3 °F 29.9 in SSO 3.6 mph 6.2 mph 47% 0 in
23:49 60.6 °F 40.3 °F 29.9 in SSO 3.9 mph 6.9 mph 47% 0 in
23:54 60.4 °F 40.1 °F 29.9 in SSO 4 mph 7 mph 47% 0 in
23:59 60.4 °F 40.1 °F 29.9 in SO 3.7 mph 5 mph 47% 0 in
Murcia-Puente Tocinos, Espa?a
Compliments of Weather Underground - 2.5 mb

La estación de MeteoMurcia.com, publica sus datos en los siguientes proyectos:

Weather Underground PWS IMURCIAP2 Meteoclimatic www.awekas.at

W3Counter
Web Analytics